Time;durP1;ratioP1;P1;durP2;ratioP2;P2;SDS_P1;SDS_P2;PMS_P1;PMS_P2;Temp;Humidity;BMP_temperature;BMP_pressure;BME280_temperature;BME280_humidity;BME280_pressure;Samples;Min_cycle;Max_cycle;Signal;HPM_P1;HPM_P2
2022/10/20 00:02:15;;;;;;;5.22;3.13;;;;;;;;;;5037725;28;20049;-60
2022/10/20 00:04:41;;;;;;;6.32;3.22;;;;;;;;;;5035546;28;20056;-59
2022/10/20 00:07:07;;;;;;;3.88;3.47;;;;;;;;;;5037020;28;20095;-59
2022/10/20 00:09:34;;;;;;;5.32;2.72;;;;;;;;;;5036064;28;20051;-59
2022/10/20 00:11:59;;;;;;;3.33;3.03;;;;;;;;;;5036684;28;20496;-59
2022/10/20 00:14:25;;;;;;;4.07;2.65;;;;;;;;;;5036882;28;20048;-59
2022/10/20 00:16:51;;;;;;;2.80;2.45;;;;;;;;;;5036881;28;20049;-59
2022/10/20 00:19:17;;;;;;;4.13;2.95;;;;;;;;;;5039073;28;20051;-59
2022/10/20 00:21:43;;;;;;;3.47;2.90;;;;;;;;;;5034866;28;20056;-60
2022/10/20 00:24:09;;;;;;;4.60;2.45;;;;;;;;;;5036903;28;20140;-59
2022/10/20 00:26:35;;;;;;;4.88;3.05;;;;;;;;;;5036561;28;20045;-59
2022/10/20 00:29:02;;;;;;;4.22;3.00;;;;;;;;;;5037881;28;20467;-59
2022/10/20 00:31:28;;;;;;;2.50;2.30;;;;;;;;;;5035056;28;20054;-59
2022/10/20 00:33:54;;;;;;;2.88;2.35;;;;;;;;;;5037309;28;20090;-59
2022/10/20 00:36:21;;;;;;;6.22;2.67;;;;;;;;;;5037878;28;20558;-60
2022/10/20 00:38:47;;;;;;;2.80;2.17;;;;;;;;;;5035448;28;20144;-59
2022/10/20 00:41:14;;;;;;;2.25;2.03;;;;;;;;;;5035802;28;20047;-60
2022/10/20 00:43:49;;;;;;;3.03;2.38;;;;;;;;;;5038571;28;20056;-59
2022/10/20 00:46:20;;;;;;;2.55;2.00;;;;;;;;;;5037364;28;20086;-59
2022/10/20 00:48:51;;;;;;;2.25;2.00;;;;;;;;;;5035951;28;20979;-59
2022/10/20 00:51:19;;;;;;;2.80;2.38;;;;;;;;;;5038533;28;20128;-59
2022/10/20 00:53:45;;;;;;;7.47;2.50;;;;;;;;;;5038126;28;20124;-59
2022/10/20 00:56:12;;;;;;;4.55;2.63;;;;;;;;;;5037393;28;20052;-59
2022/10/20 00:58:38;;;;;;;2.33;2.10;;;;;;;;;;5037449;28;20040;-60
2022/10/20 01:01:04;;;;;;;3.38;2.22;;;;;;;;;;5038840;28;20045;-59
2022/10/20 01:03:34;;;;;;;3.33;2.50;;;;;;;;;;5032686;28;20041;-59
2022/10/20 01:06:00;;;;;;;3.53;2.50;;;;;;;;;;5035046;28;20057;-59
2022/10/20 01:08:26;;;;;;;2.25;2.10;;;;;;;;;;5037124;28;20037;-59
2022/10/20 01:11:10;;;;;;;2.13;1.90;;;;;;;;;;5037024;28;20042;-59
2022/10/20 01:13:42;;;;;;;2.05;1.85;;;;;;;;;;5032654;28;20080;-59
2022/10/20 01:16:16;;;;;;;2.80;2.17;;;;;;;;;;5035165;28;20037;-59
2022/10/20 01:18:50;;;;;;;3.97;2.97;;;;;;;;;;5036410;28;20099;-59
2022/10/20 01:21:16;;;;;;;2.65;2.05;;;;;;;;;;5037315;28;20041;-59
2022/10/20 01:24:00;;;;;;;3.65;2.55;;;;;;;;;;5037089;28;20405;-59
2022/10/20 01:26:44;;;;;;;3.22;2.30;;;;;;;;;;5031522;28;20052;-59
2022/10/20 01:29:10;;;;;;;1.88;1.77;;;;;;;;;;5034440;28;20040;-59
2022/10/20 01:31:36;;;;;;;3.28;2.53;;;;;;;;;;5033597;28;20045;-60
2022/10/20 01:34:08;;;;;;;4.88;3.58;;;;;;;;;;5032386;28;20044;-59
2022/10/20 01:36:38;;;;;;;4.22;2.78;;;;;;;;;;5040032;28;20495;-58
2022/10/20 01:39:08;;;;;;;4.22;2.50;;;;;;;;;;5037115;28;20037;-59
2022/10/20 01:41:38;;;;;;;2.45;2.25;;;;;;;;;;5035759;28;20047;-59
2022/10/20 01:44:07;;;;;;;3.47;2.53;;;;;;;;;;5035975;28;20399;-59
2022/10/20 01:46:34;;;;;;;2.85;2.13;;;;;;;;;;5037489;28;20037;-59
2022/10/20 01:49:01;;;;;;;4.88;3.08;;;;;;;;;;5030906;28;20128;-59
2022/10/20 01:51:27;;;;;;;4.95;3.30;;;;;;;;;;5034671;28;20136;-59
2022/10/20 01:53:53;;;;;;;4.10;3.15;;;;;;;;;;5036579;28;20045;-59
2022/10/20 01:56:21;;;;;;;3.72;2.88;;;;;;;;;;5032329;28;20041;-58
2022/10/20 01:59:00;;;;;;;4.68;3.15;;;;;;;;;;5032793;28;20036;-59
2022/10/20 02:01:35;;;;;;;2.70;2.50;;;;;;;;;;5038244;28;20040;-59
2022/10/20 02:04:02;;;;;;;2.95;2.45;;;;;;;;;;5036599;28;20045;-59
2022/10/20 02:06:31;;;;;;;3.25;2.42;;;;;;;;;;5035101;28;20124;-59
2022/10/20 02:08:59;;;;;;;2.63;2.42;;;;;;;;;;5036189;28;20369;-59
2022/10/20 02:11:25;;;;;;;2.47;2.28;;;;;;;;;;5034427;28;20052;-59
2022/10/20 02:13:51;;;;;;;2.70;2.30;;;;;;;;;;5035012;28;20064;-59
2022/10/20 02:16:20;;;;;;;4.82;2.80;;;;;;;;;;5035031;28;20056;-60
2022/10/20 02:18:47;;;;;;;3.47;3.15;;;;;;;;;;5031190;28;20508;-59
2022/10/20 02:21:13;;;;;;;4.82;3.05;;;;;;;;;;5033574;28;20044;-59
2022/10/20 02:23:40;;;;;;;2.85;2.65;;;;;;;;;;5033401;28;20069;-59
2022/10/20 02:26:08;;;;;;;3.83;2.67;;;;;;;;;;5035825;28;20127;-59
2022/10/20 02:28:35;;;;;;;4.15;3.05;;;;;;;;;;5031996;28;20057;-59
2022/10/20 02:31:02;;;;;;;3.47;3.00;;;;;;;;;;5032494;28;20471;-59
2022/10/20 02:33:29;;;;;;;5.97;3.78;;;;;;;;;;5035888;28;20246;-59
2022/10/20 02:35:56;;;;;;;3.08;2.78;;;;;;;;;;5035611;28;20099;-59
2022/10/20 02:38:23;;;;;;;3.88;2.75;;;;;;;;;;5037972;28;20142;-59
2022/10/20 02:40:49;;;;;;;3.80;2.45;;;;;;;;;;5037021;28;20056;-59
2022/10/20 02:43:15;;;;;;;3.38;2.80;;;;;;;;;;5041525;28;20045;-60
2022/10/20 02:45:41;;;;;;;4.90;2.58;;;;;;;;;;5041831;28;20041;-59
2022/10/20 02:48:08;;;;;;;3.03;2.70;;;;;;;;;;5040706;28;20411;-59
2022/10/20 02:50:35;;;;;;;3.53;2.95;;;;;;;;;;5038640;28;20046;-59
2022/10/20 02:53:01;;;;;;;3.53;2.92;;;;;;;;;;5036726;28;20107;-58
2022/10/20 02:55:27;;;;;;;3.92;3.20;;;;;;;;;;5038598;28;20049;-59
2022/10/20 02:57:53;;;;;;;4.97;2.72;;;;;;;;;;5041146;28;21041;-59
2022/10/20 03:00:20;;;;;;;5.45;3.05;;;;;;;;;;5053340;28;20124;-59
2022/10/20 03:02:47;;;;;;;3.50;3.17;;;;;;;;;;5040084;28;20471;-59
2022/10/20 03:05:13;;;;;;;2.85;2.55;;;;;;;;;;5039234;28;20134;-59
2022/10/20 03:07:39;;;;;;;3.40;3.00;;;;;;;;;;5036154;28;20046;-59
2022/10/20 03:10:05;;;;;;;3.78;3.47;;;;;;;;;;5037761;28;20087;-59
2022/10/20 03:12:31;;;;;;;4.35;3.78;;;;;;;;;;5040393;28;20049;-59
2022/10/20 03:14:57;;;;;;;3.83;3.20;;;;;;;;;;5035887;28;20511;-59
2022/10/20 03:17:23;;;;;;;5.05;4.03;;;;;;;;;;5037370;28;20045;-59
2022/10/20 03:19:49;;;;;;;4.22;3.42;;;;;;;;;;5037786;28;20383;-59
2022/10/20 03:22:15;;;;;;;4.65;3.15;;;;;;;;;;5038847;28;20037;-59
2022/10/20 03:24:42;;;;;;;5.68;3.72;;;;;;;;;;5038159;28;20106;-59
2022/10/20 03:27:08;;;;;;;4.28;3.88;;;;;;;;;;5035349;28;20048;-59
2022/10/20 03:29:34;;;;;;;4.10;3.70;;;;;;;;;;5037406;28;20038;-59
2022/10/20 03:32:00;;;;;;;6.38;4.55;;;;;;;;;;5037140;28;20138;-59
2022/10/20 03:34:26;;;;;;;7.50;4.00;;;;;;;;;;5038239;28;20045;-59
2022/10/20 03:36:52;;;;;;;4.25;3.85;;;;;;;;;;5036139;28;20485;-59
2022/10/20 03:39:18;;;;;;;6.97;4.68;;;;;;;;;;5042108;28;20541;-59
2022/10/20 03:41:44;;;;;;;5.15;4.43;;;;;;;;;;5035751;28;20113;-59
2022/10/20 03:44:10;;;;;;;4.30;3.90;;;;;;;;;;5038170;28;20120;-59
2022/10/20 03:46:36;;;;;;;5.57;4.32;;;;;;;;;;5039633;28;20821;-59
2022/10/20 03:49:03;;;;;;;5.15;3.67;;;;;;;;;;5037059;28;20159;-59
2022/10/20 03:51:29;;;;;;;6.88;3.45;;;;;;;;;;5038618;28;20147;-59
2022/10/20 03:53:55;;;;;;;4.15;3.72;;;;;;;;;;5037398;28;20412;-59
2022/10/20 03:56:21;;;;;;;5.50;3.42;;;;;;;;;;5033757;28;20099;-59
2022/10/20 03:58:47;;;;;;;4.25;3.30;;;;;;;;;;5038689;28;20041;-59
2022/10/20 04:01:14;;;;;;;4.45;4.00;;;;;;;;;;5038663;28;20033;-59
2022/10/20 04:03:40;;;;;;;3.88;3.47;;;;;;;;;;5042305;28;20132;-59
2022/10/20 04:06:06;;;;;;;4.57;4.18;;;;;;;;;;5040386;28;20068;-59
2022/10/20 04:08:32;;;;;;;5.53;4.40;;;;;;;;;;5039690;28;20419;-59
2022/10/20 04:10:58;;;;;;;4.47;4.07;;;;;;;;;;5039187;28;20053;-59
2022/10/20 04:13:24;;;;;;;4.38;3.97;;;;;;;;;;5035683;28;20053;-59
2022/10/20 04:15:50;;;;;;;7.32;4.85;;;;;;;;;;5039258;28;20041;-59
2022/10/20 04:18:16;;;;;;;5.18;4.20;;;;;;;;;;5040169;28;20037;-59
2022/10/20 04:20:42;;;;;;;4.68;4.25;;;;;;;;;;5038915;28;20123;-59
2022/10/20 04:23:08;;;;;;;5.45;4.93;;;;;;;;;;5039242;28;20140;-60
2022/10/20 04:25:34;;;;;;;5.95;5.15;;;;;;;;;;5042547;28;20132;-59
2022/10/20 04:28:00;;;;;;;5.40;4.72;;;;;;;;;;5039850;28;20092;-59
2022/10/20 04:30:26;;;;;;;6.00;3.83;;;;;;;;;;5041612;28;20076;-59
2022/10/20 04:32:52;;;;;;;5.20;4.70;;;;;;;;;;5043650;28;20164;-59
2022/10/20 04:35:18;;;;;;;4.47;4.07;;;;;;;;;;5039054;28;20211;-59
2022/10/20 04:37:44;;;;;;;5.07;4.57;;;;;;;;;;5039920;28;20106;-59
2022/10/20 04:40:10;;;;;;;5.25;4.53;;;;;;;;;;5042861;28;20045;-59
2022/10/20 04:42:36;;;;;;;4.50;4.18;;;;;;;;;;5039271;28;20418;-59
2022/10/20 04:45:02;;;;;;;5.50;4.82;;;;;;;;;;5040480;28;20045;-59
2022/10/20 04:47:32;;;;;;;5.38;4.88;;;;;;;;;;5039272;28;20033;-59
2022/10/20 04:49:58;;;;;;;6.43;5.13;;;;;;;;;;5038195;28;20072;-59
2022/10/20 04:52:24;;;;;;;5.75;5.15;;;;;;;;;;5037754;28;20508;-59
2022/10/20 04:54:50;;;;;;;10.25;5.88;;;;;;;;;;5038741;28;20055;-59
2022/10/20 04:57:16;;;;;;;5.82;5.20;;;;;;;;;;5035354;28;20055;-59
2022/10/20 04:59:42;;;;;;;5.50;5.05;;;;;;;;;;5038699;28;20538;-59
2022/10/20 05:02:10;;;;;;;6.20;5.60;;;;;;;;;;5038694;28;20033;-59
2022/10/20 05:04:36;;;;;;;6.07;5.47;;;;;;;;;;5040677;28;20136;-59
2022/10/20 05:07:02;;;;;;;5.93;4.57;;;;;;;;;;5039657;28;20045;-59
2022/10/20 05:09:28;;;;;;;5.47;4.90;;;;;;;;;;5039234;28;20098;-59
2022/10/20 05:11:54;;;;;;;6.18;5.47;;;;;;;;;;5036857;28;20097;-59
2022/10/20 05:14:20;;;;;;;6.35;5.75;;;;;;;;;;5037524;28;20040;-59
2022/10/20 05:16:46;;;;;;;6.63;5.95;;;;;;;;;;5038244;28;20520;-59
2022/10/20 05:19:12;;;;;;;7.90;6.95;;;;;;;;;;5041849;28;20087;-59
2022/10/20 05:21:38;;;;;;;6.40;5.75;;;;;;;;;;5037960;28;20111;-59
2022/10/20 05:24:05;;;;;;;7.25;6.53;;;;;;;;;;5043604;28;20046;-59
2022/10/20 05:26:33;;;;;;;6.18;5.60;;;;;;;;;;5040077;28;20047;-59
2022/10/20 05:29:00;;;;;;;7.25;6.55;;;;;;;;;;5039807;28;20061;-59
2022/10/20 05:31:26;;;;;;;7.22;6.53;;;;;;;;;;5044886;28;20037;-59
2022/10/20 05:33:54;;;;;;;7.43;6.82;;;;;;;;;;5039563;28;20110;-59
2022/10/20 05:36:21;;;;;;;9.15;7.25;;;;;;;;;;5042304;28;20388;-59
2022/10/20 05:38:48;;;;;;;7.10;6.43;;;;;;;;;;5041093;28;20056;-59
2022/10/20 05:41:15;;;;;;;9.55;6.22;;;;;;;;;;5040129;28;20414;-59
2022/10/20 05:43:41;;;;;;;6.63;5.82;;;;;;;;;;5038890;28;20036;-59
2022/10/20 05:46:08;;;;;;;6.38;5.53;;;;;;;;;;5037450;28;20053;-60
2022/10/20 05:48:35;;;;;;;9.18;5.93;;;;;;;;;;5040176;28;20171;-59
2022/10/20 05:51:33;;;;;;;9.00;6.32;;;;;;;;;;5037529;28;20359;-60
2022/10/20 05:53:59;;;;;;;6.80;6.18;;;;;;;;;;5001526;28;20158;-59
2022/10/20 05:56:26;;;;;;;6.22;5.63;;;;;;;;;;5041008;28;20102;-59
2022/10/20 05:58:52;;;;;;;7.55;5.80;;;;;;;;;;5037431;28;20048;-59
2022/10/20 06:01:22;;;;;;;6.65;5.10;;;;;;;;;;5038449;28;20033;-59
2022/10/20 06:03:55;;;;;;;6.43;5.80;;;;;;;;;;5039637;28;20041;-59
2022/10/20 06:06:23;;;;;;;7.55;6.85;;;;;;;;;;5036075;28;20415;-59
2022/10/20 06:08:49;;;;;;;8.43;7.45;;;;;;;;;;5037975;28;20068;-59
2022/10/20 06:11:16;;;;;;;6.53;5.93;;;;;;;;;;5035978;28;20506;-59
2022/10/20 06:13:42;;;;;;;9.00;6.72;;;;;;;;;;5034570;28;20083;-59
2022/10/20 06:16:09;;;;;;;7.75;7.05;;;;;;;;;;5038412;28;20059;-59
2022/10/20 06:18:37;;;;;;;7.85;7.13;;;;;;;;;;5039516;28;20404;-59
2022/10/20 06:21:09;;;;;;;8.30;7.20;;;;;;;;;;5039922;28;20045;-59
2022/10/20 06:23:35;;;;;;;8.93;8.13;;;;;;;;;;5040714;28;20044;-59
2022/10/20 06:26:05;;;;;;;9.75;8.85;;;;;;;;;;5036508;28;20096;-59
2022/10/20 06:28:32;;;;;;;9.05;8.25;;;;;;;;;;5037815;28;20042;-59
2022/10/20 06:30:58;;;;;;;8.32;7.53;;;;;;;;;;5038520;28;20053;-59
2022/10/20 06:33:24;;;;;;;7.30;6.68;;;;;;;;;;5037298;28;20044;-59
2022/10/20 06:35:50;;;;;;;7.05;6.45;;;;;;;;;;5036554;28;20640;-59
2022/10/20 06:38:16;;;;;;;8.77;7.25;;;;;;;;;;5036073;28;20135;-59
2022/10/20 06:40:42;;;;;;;9.90;8.02;;;;;;;;;;5039246;28;20045;-59
2022/10/20 06:43:08;;;;;;;8.50;7.50;;;;;;;;;;5035121;28;20036;-59
2022/10/20 06:45:34;;;;;;;8.18;7.32;;;;;;;;;;5042929;28;20510;-59
2022/10/20 06:48:00;;;;;;;9.02;7.40;;;;;;;;;;5040566;28;20041;-59
2022/10/20 06:50:26;;;;;;;8.93;8.02;;;;;;;;;;5038024;28;20047;-59
2022/10/20 06:52:52;;;;;;;9.77;8.77;;;;;;;;;;5034273;28;20045;-60
2022/10/20 06:55:18;;;;;;;7.97;7.18;;;;;;;;;;5038087;28;20037;-59
2022/10/20 06:57:44;;;;;;;10.15;8.15;;;;;;;;;;5035532;28;20038;-59
2022/10/20 07:00:10;;;;;;;7.97;7.18;;;;;;;;;;5033403;28;20041;-59
2022/10/20 07:02:38;;;;;;;7.88;6.53;;;;;;;;;;5043584;28;20041;-59
2022/10/20 07:05:04;;;;;;;8.43;7.63;;;;;;;;;;5037096;28;20060;-59
2022/10/20 07:07:30;;;;;;;8.70;7.80;;;;;;;;;;5035211;28;20452;-59
2022/10/20 07:09:56;;;;;;;8.95;7.07;;;;;;;;;;5035776;28;20129;-59
2022/10/20 07:12:22;;;;;;;12.05;8.45;;;;;;;;;;5032788;28;20046;-60
2022/10/20 07:14:48;;;;;;;10.55;8.32;;;;;;;;;;5034986;28;20041;-59
2022/10/20 07:17:14;;;;;;;9.85;8.90;;;;;;;;;;5041962;28;20500;-59
2022/10/20 07:19:40;;;;;;;9.30;8.50;;;;;;;;;;5037804;28;20140;-59
2022/10/20 07:22:06;;;;;;;9.30;8.40;;;;;;;;;;5036630;28;20052;-59
2022/10/20 07:24:32;;;;;;;11.95;9.55;;;;;;;;;;5037544;28;20106;-60
2022/10/20 07:26:58;;;;;;;9.35;8.35;;;;;;;;;;5041317;28;20049;-59
2022/10/20 07:29:24;;;;;;;8.95;8.13;;;;;;;;;;5037630;28;20539;-59
2022/10/20 07:31:50;;;;;;;11.23;10.00;;;;;;;;;;5039484;28;20060;-59
2022/10/20 07:34:18;;;;;;;9.88;8.85;;;;;;;;;;5045684;28;20075;-59
2022/10/20 07:36:44;;;;;;;9.52;8.23;;;;;;;;;;5037336;28;20049;-59
2022/10/20 07:39:12;;;;;;;8.85;8.05;;;;;;;;;;5037636;28;20049;-59
2022/10/20 07:41:38;;;;;;;12.27;8.73;;;;;;;;;;5043320;28;20547;-59
2022/10/20 07:44:05;;;;;;;12.85;9.05;;;;;;;;;;5042080;28;20052;-59
2022/10/20 07:46:31;;;;;;;11.18;9.80;;;;;;;;;;5037435;28;20073;-59
2022/10/20 07:48:57;;;;;;;13.43;10.25;;;;;;;;;;5040279;28;20110;-59
2022/10/20 07:51:27;;;;;;;9.40;8.38;;;;;;;;;;5034390;28;20041;-59
2022/10/20 07:53:54;;;;;;;9.50;8.60;;;;;;;;;;5043820;28;20450;-56
2022/10/20 07:56:21;;;;;;;12.73;9.65;;;;;;;;;;5044375;28;20491;-54
2022/10/20 07:58:47;;;;;;;10.43;9.50;;;;;;;;;;5026962;28;20103;-55
2022/10/20 08:01:14;;;;;;;9.38;8.35;;;;;;;;;;5040677;28;20499;-58
2022/10/20 08:03:40;;;;;;;9.48;8.38;;;;;;;;;;5046506;28;20311;-60
2022/10/20 08:06:06;;;;;;;10.35;9.25;;;;;;;;;;5048380;28;20052;-58
2022/10/20 08:08:32;;;;;;;8.77;7.88;;;;;;;;;;5047709;28;20095;-58
2022/10/20 08:10:59;;;;;;;8.18;7.38;;;;;;;;;;5048054;28;20052;-58
2022/10/20 08:13:25;;;;;;;8.20;7.40;;;;;;;;;;5046934;28;20045;-58
2022/10/20 08:15:51;;;;;;;10.07;8.70;;;;;;;;;;5046683;28;20075;-59
2022/10/20 08:18:17;;;;;;;9.55;8.60;;;;;;;;;;5047355;28;20499;-58
2022/10/20 08:20:44;;;;;;;9.68;8.15;;;;;;;;;;5046016;28;20048;-58
2022/10/20 08:23:11;;;;;;;9.07;8.18;;;;;;;;;;5037807;28;20125;-58
2022/10/20 08:25:37;;;;;;;10.77;9.50;;;;;;;;;;5042501;28;20054;-58
2022/10/20 08:28:03;;;;;;;8.68;7.90;;;;;;;;;;5045022;28;20045;-58
2022/10/20 08:30:29;;;;;;;9.73;8.82;;;;;;;;;;5037374;28;20240;-58
2022/10/20 08:32:55;;;;;;;8.48;7.68;;;;;;;;;;5040337;28;20041;-58
2022/10/20 08:35:22;;;;;;;10.18;8.40;;;;;;;;;;5037423;28;20088;-58
2022/10/20 08:37:48;;;;;;;9.63;8.13;;;;;;;;;;5032312;28;20069;-60
2022/10/20 08:40:17;;;;;;;13.88;9.48;;;;;;;;;;5041577;28;20118;-58
2022/10/20 08:42:44;;;;;;;10.07;8.50;;;;;;;;;;5041701;28;20051;-58
2022/10/20 08:45:26;;;;;;;10.05;8.63;;;;;;;;;;5036389;28;20037;-57
2022/10/20 08:47:52;;;;;;;;;;;;;;;;;;5044696;28;20045;-54
2022/10/20 08:50:20;;;;;;;8.77;7.93;;;;;;;;;;5037708;28;20287;-58
2022/10/20 08:52:47;;;;;;;8.38;7.57;;;;;;;;;;5037324;28;20060;-58
2022/10/20 08:55:29;;;;;;;8.80;8.00;;;;;;;;;;5040991;28;20140;-58
2022/10/20 08:57:58;;;;;;;9.75;8.27;;;;;;;;;;5041647;28;20091;-58
2022/10/20 09:00:24;;;;;;;10.35;9.30;;;;;;;;;;5046795;28;20060;-59
2022/10/20 09:02:50;;;;;;;11.80;8.95;;;;;;;;;;5035158;28;20041;-59
2022/10/20 09:05:20;;;;;;;10.07;8.60;;;;;;;;;;5043260;28;20053;-58
2022/10/20 09:07:50;;;;;;;9.40;8.48;;;;;;;;;;5042534;28;20049;-58
2022/10/20 09:10:16;;;;;;;8.65;7.65;;;;;;;;;;5039704;28;20037;-58
2022/10/20 09:12:44;;;;;;;11.63;9.10;;;;;;;;;;5042903;28;20049;-58
2022/10/20 09:15:14;;;;;;;9.13;8.23;;;;;;;;;;5046504;28;20037;-57
2022/10/20 09:17:42;;;;;;;8.32;7.50;;;;;;;;;;5044078;28;20377;-58
2022/10/20 09:20:15;;;;;;;8.60;7.07;;;;;;;;;;5037619;28;20518;-58
2022/10/20 09:22:41;;;;;;;8.82;7.88;;;;;;;;;;5040386;28;20084;-57
2022/10/20 09:25:12;;;;;;;8.80;6.97;;;;;;;;;;5042788;28;20516;-59
2022/10/20 09:27:40;;;;;;;7.90;5.65;;;;;;;;;;5035719;28;20132;-58
2022/10/20 09:30:13;;;;;;;6.97;6.30;;;;;;;;;;5039047;28;20052;-58
2022/10/20 09:32:40;;;;;;;8.25;7.45;;;;;;;;;;5038674;28;20106;-58
2022/10/20 09:35:14;;;;;;;8.77;7.70;;;;;;;;;;5034601;28;20041;-58
2022/10/20 09:37:41;;;;;;;7.85;6.35;;;;;;;;;;5036977;28;20119;-58
2022/10/20 09:40:13;;;;;;;7.85;7.15;;;;;;;;;;5041371;28;20551;-58
2022/10/20 09:42:43;;;;;;;9.05;7.30;;;;;;;;;;5039220;28;20052;-58
2022/10/20 09:45:15;;;;;;;6.93;6.32;;;;;;;;;;5038444;28;20049;-57
2022/10/20 09:47:46;;;;;;;6.53;5.93;;;;;;;;;;5040287;28;20037;-59
2022/10/20 09:50:18;;;;;;;11.60;6.78;;;;;;;;;;5041745;28;20269;-59
2022/10/20 09:52:47;;;;;;;9.02;6.82;;;;;;;;;;5039576;28;20044;-59
2022/10/20 09:55:27;;;;;;;6.78;6.07;;;;;;;;;;5039010;28;20507;-59
2022/10/20 09:57:55;;;;;;;7.30;6.15;;;;;;;;;;5035252;28;20127;-59
2022/10/20 10:00:29;;;;;;;7.10;6.40;;;;;;;;;;5037877;28;20069;-59
2022/10/20 10:03:20;;;;;;;8.10;7.40;;;;;;;;;;5037153;28;20487;-59
2022/10/20 10:05:53;;;;;;;7.82;7.10;;;;;;;;;;5044774;28;20053;-59
2022/10/20 10:08:21;;;;;;;7.10;6.50;;;;;;;;;;5044756;28;20687;-59
2022/10/20 10:10:57;;;;;;;7.85;6.43;;;;;;;;;;5040875;28;20091;-59
2022/10/20 10:13:25;;;;;;;6.97;6.38;;;;;;;;;;5039294;28;20049;-60
2022/10/20 10:16:05;;;;;;;6.25;5.68;;;;;;;;;;5037593;28;20056;-59
2022/10/20 10:18:32;;;;;;;6.65;5.78;;;;;;;;;;5038179;28;20408;-60
2022/10/20 10:20:59;;;;;;;5.55;5.13;;;;;;;;;;5033744;28;20064;-59
2022/10/20 10:23:26;;;;;;;7.70;6.88;;;;;;;;;;5023287;28;20056;-59
2022/10/20 10:25:52;;;;;;;8.45;6.25;;;;;;;;;;5025747;28;20049;-59
2022/10/20 10:28:32;;;;;;;6.50;5.00;;;;;;;;;;5025297;28;20514;-59
2022/10/20 10:31:16;;;;;;;6.80;6.20;;;;;;;;;;5024403;28;20049;-60
2022/10/20 10:33:42;;;;;;;7.03;5.88;;;;;;;;;;5025396;28;20049;-59
2022/10/20 10:36:20;;;;;;;6.88;6.25;;;;;;;;;;5025345;28;20045;-60
2022/10/20 10:38:46;;;;;;;6.25;5.65;;;;;;;;;;5025554;28;20800;-60
2022/10/20 10:41:27;;;;;;;9.02;6.53;;;;;;;;;;5025454;28;20080;-59
2022/10/20 10:44:02;;;;;;;7.43;5.78;;;;;;;;;;5025213;28;20045;-59
2022/10/20 10:46:35;;;;;;;7.03;6.38;;;;;;;;;;5025125;28;20050;-59
2022/10/20 10:49:24;;;;;;;7.63;6.45;;;;;;;;;;5025559;28;20123;-60
2022/10/20 10:51:50;;;;;;;6.47;5.85;;;;;;;;;;5024745;28;20132;-60
2022/10/20 10:54:25;;;;;;;8.48;6.07;;;;;;;;;;5025295;28;20141;-60
2022/10/20 10:56:54;;;;;;;6.22;5.63;;;;;;;;;;5025867;28;20049;-60
2022/10/20 10:59:26;;;;;;;6.28;5.60;;;;;;;;;;5028329;28;20069;-60
2022/10/20 11:01:55;;;;;;;6.10;5.60;;;;;;;;;;5029216;28;20053;-59
2022/10/20 11:04:21;;;;;;;6.93;6.32;;;;;;;;;;5027989;28;20065;-59
2022/10/20 11:06:47;;;;;;;7.15;5.80;;;;;;;;;;5030226;28;20420;-60
2022/10/20 11:09:12;;;;;;;5.28;4.80;;;;;;;;;;5046701;28;20420;-59
2022/10/20 11:11:38;;;;;;;5.93;5.32;;;;;;;;;;5033160;28;20344;-60
2022/10/20 11:14:07;;;;;;;7.82;5.97;;;;;;;;;;5041890;28;20102;-60
2022/10/20 11:16:33;;;;;;;6.32;5.72;;;;;;;;;;5048481;28;20649;-60
2022/10/20 11:19:12;;;;;;;5.55;5.05;;;;;;;;;;5032282;28;20092;-60
2022/10/20 11:21:53;;;;;;;5.10;4.70;;;;;;;;;;5029507;28;20045;-59
2022/10/20 11:24:22;;;;;;;4.93;4.53;;;;;;;;;;5028781;28;20049;-60
2022/10/20 11:26:53;;;;;;;4.88;4.47;;;;;;;;;;5044155;28;20045;-60
2022/10/20 11:29:51;;;;;;;5.05;4.65;;;;;;;;;;5044442;28;20399;-61
2022/10/20 11:32:21;;;;;;;5.63;5.10;;;;;;;;;;5030178;28;20060;-60
2022/10/20 11:35:06;;;;;;;6.20;4.57;;;;;;;;;;5042882;28;20037;-59
2022/10/20 11:37:37;;;;;;;4.90;4.50;;;;;;;;;;5039332;28;20036;-60
2022/10/20 11:40:24;;;;;;;7.60;5.45;;;;;;;;;;5044696;28;20048;-60
2022/10/20 11:42:50;;;;;;;6.10;5.03;;;;;;;;;;5046055;28;20045;-60
2022/10/20 11:45:22;;;;;;;5.32;4.88;;;;;;;;;;5045810;28;20349;-60
2022/10/20 11:47:48;;;;;;;;;;;;;;;;;;5042773;28;20112;-59
2022/10/20 11:50:14;;;;;;;4.85;4.45;;;;;;;;;;5038011;28;20382;-59
2022/10/20 11:52:42;;;;;;;4.57;4.18;;;;;;;;;;5045970;28;20534;-60
2022/10/20 11:55:14;;;;;;;5.60;5.10;;;;;;;;;;5042108;28;20082;-60
2022/10/20 11:57:41;;;;;;;5.18;4.68;;;;;;;;;;5044691;28;20040;-59
2022/10/20 12:00:39;;;;;;;5.35;4.82;;;;;;;;;;5044570;28;20044;-60
2022/10/20 12:03:20;;;;;;;5.70;5.20;;;;;;;;;;5042004;28;20045;-60
2022/10/20 12:06:25;;;;;;;5.10;4.70;;;;;;;;;;5042332;28;20053;-59
2022/10/20 12:08:51;;;;;;;4.57;4.18;;;;;;;;;;5002197;28;20038;-60
2022/10/20 12:11:17;;;;;;;4.63;4.20;;;;;;;;;;5009201;28;20700;-60
2022/10/20 12:14:02;;;;;;;6.05;4.30;;;;;;;;;;5028428;28;20395;-59
2022/10/20 12:16:46;;;;;;;4.43;4.00;;;;;;;;;;5043250;28;20091;-59
2022/10/20 12:19:16;;;;;;;4.10;3.80;;;;;;;;;;5042833;28;20061;-59
2022/10/20 12:22:03;;;;;;;5.05;4.50;;;;;;;;;;5044758;28;20505;-59
2022/10/20 12:24:33;;;;;;;5.43;4.55;;;;;;;;;;5045238;28;20049;-60
2022/10/20 12:27:08;;;;;;;4.35;3.95;;;;;;;;;;5046240;28;20080;-59
2022/10/20 12:29:34;;;;;;;4.20;3.38;;;;;;;;;;5044174;28;20072;-60
2022/10/20 12:32:20;;;;;;;4.43;4.03;;;;;;;;;;5043805;28;20496;-59
2022/10/20 12:34:46;;;;;;;3.75;3.45;;;;;;;;;;5044820;28;20071;-59
2022/10/20 12:37:15;;;;;;;3.95;3.55;;;;;;;;;;5037095;28;21628;-59
2022/10/20 12:39:41;;;;;;;4.00;3.60;;;;;;;;;;5043901;28;20556;-59
2022/10/20 12:42:18;;;;;;;3.97;3.28;;;;;;;;;;5043621;28;20040;-59
2022/10/20 12:44:45;;;;;;;4.32;3.97;;;;;;;;;;5044343;28;20102;-59
2022/10/20 12:47:30;;;;;;;6.22;4.15;;;;;;;;;;5043184;28;20106;-59
2022/10/20 12:49:59;;;;;;;4.13;3.83;;;;;;;;;;5041428;28;20057;-59
2022/10/20 12:52:31;;;;;;;4.03;3.67;;;;;;;;;;5040614;28;20049;-59
2022/10/20 12:55:08;;;;;;;5.43;4.18;;;;;;;;;;5044049;28;20048;-59
2022/10/20 12:57:40;;;;;;;4.53;4.15;;;;;;;;;;5041265;28;20040;-59
2022/10/20 13:00:07;;;;;;;4.35;4.05;;;;;;;;;;5039038;28;20053;-59
2022/10/20 13:02:43;;;;;;;4.50;4.15;;;;;;;;;;5040549;28;20064;-59
2022/10/20 13:05:09;;;;;;;4.35;4.03;;;;;;;;;;5042652;28;20059;-59
2022/10/20 13:07:47;;;;;;;8.45;5.03;;;;;;;;;;5046512;28;20048;-59
2022/10/20 13:10:31;;;;;;;5.80;5.30;;;;;;;;;;5045102;28;20055;-59
2022/10/20 13:13:00;;;;;;;4.95;4.45;;;;;;;;;;5041835;28;20118;-59
2022/10/20 13:15:31;;;;;;;4.55;4.15;;;;;;;;;;5046556;28;20120;-59
2022/10/20 13:18:12;;;;;;;4.90;4.32;;;;;;;;;;5042136;28;20549;-59
2022/10/20 13:20:59;;;;;;;5.95;4.32;;;;;;;;;;5042952;28;20134;-59
2022/10/20 13:23:29;;;;;;;4.50;4.20;;;;;;;;;;5040634;28;20127;-59
2022/10/20 13:25:56;;;;;;;4.25;3.95;;;;;;;;;;5038798;28;20039;-59
2022/10/20 13:28:30;;;;;;;4.28;3.97;;;;;;;;;;5043512;28;20598;-59
2022/10/20 13:31:19;;;;;;;6.75;5.28;;;;;;;;;;5044639;28;20041;-59
2022/10/20 13:34:04;;;;;;;6.68;5.38;;;;;;;;;;5031515;28;20083;-59
2022/10/20 13:36:54;;;;;;;7.25;6.57;;;;;;;;;;5043766;28;20045;-59
2022/10/20 13:39:23;;;;;;;7.47;5.95;;;;;;;;;;5041799;28;20049;-59
2022/10/20 13:42:09;;;;;;;8.98;6.22;;;;;;;;;;5031756;28;20177;-59
2022/10/20 13:44:44;;;;;;;5.80;5.32;;;;;;;;;;5038081;28;20121;-59
2022/10/20 13:47:29;;;;;;;5.47;4.95;;;;;;;;;;5042705;28;20457;-59
2022/10/20 13:49:58;;;;;;;5.57;5.07;;;;;;;;;;5037145;28;20041;-59
2022/10/20 13:52:26;;;;;;;4.93;4.15;;;;;;;;;;5043502;28;20511;-59
2022/10/20 13:54:52;;;;;;;5.95;5.35;;;;;;;;;;5044933;28;20060;-58
2022/10/20 13:57:25;;;;;;;5.82;5.22;;;;;;;;;;5045545;28;20045;-59
2022/10/20 13:59:58;;;;;;;4.93;4.63;;;;;;;;;;5046327;28;20048;-59
2022/10/20 14:02:27;;;;;;;6.63;6.03;;;;;;;;;;5043844;28;20041;-59
2022/10/20 14:05:07;;;;;;;7.43;6.78;;;;;;;;;;5043462;28;20064;-59
2022/10/20 14:07:36;;;;;;;7.25;5.88;;;;;;;;;;5043738;28;20052;-59
2022/10/20 14:10:03;;;;;;;5.82;5.35;;;;;;;;;;5045781;28;20103;-59
2022/10/20 14:12:30;;;;;;;6.15;5.55;;;;;;;;;;5040658;28;20059;-59
2022/10/20 14:14:57;;;;;;;7.72;7.03;;;;;;;;;;5037049;28;20465;-59
2022/10/20 14:17:24;;;;;;;6.40;5.80;;;;;;;;;;5030159;28;20131;-59
2022/10/20 14:19:50;;;;;;;7.20;6.50;;;;;;;;;;5041951;28;20040;-58
2022/10/20 14:22:24;;;;;;;11.13;8.73;;;;;;;;;;5044354;28;20399;-58
2022/10/20 14:24:51;;;;;;;8.50;7.70;;;;;;;;;;5033800;28;20124;-58
2022/10/20 14:27:21;;;;;;;7.00;6.43;;;;;;;;;;5043905;28;20072;-59
2022/10/20 14:29:48;;;;;;;7.70;6.97;;;;;;;;;;5038200;28;20474;-59
2022/10/20 14:32:17;;;;;;;6.65;6.00;;;;;;;;;;5028174;28;20041;-59
2022/10/20 14:34:53;;;;;;;8.73;7.50;;;;;;;;;;5040505;28;20060;-59
2022/10/20 14:37:34;;;;;;;7.10;6.47;;;;;;;;;;5028477;28;20084;-59
2022/10/20 14:40:07;;;;;;;7.68;6.57;;;;;;;;;;5029473;28;20053;-59
2022/10/20 14:42:34;;;;;;;7.97;7.22;;;;;;;;;;5031108;28;20041;-59
2022/10/20 14:45:01;;;;;;;7.47;6.68;;;;;;;;;;5037642;28;20089;-58
2022/10/20 14:47:32;;;;;;;6.88;6.25;;;;;;;;;;5046340;28;20123;-58
2022/10/20 14:49:58;;;;;;;5.32;4.82;;;;;;;;;;5040165;28;20063;-59
2022/10/20 14:52:28;;;;;;;6.38;5.78;;;;;;;;;;5047411;28;20045;-59
2022/10/20 14:54:54;;;;;;;6.70;6.05;;;;;;;;;;5038023;28;20041;-59
2022/10/20 14:57:20;;;;;;;7.30;6.70;;;;;;;;;;5045888;28;20051;-59